Time;durP1;ratioP1;P1;durP2;ratioP2;P2;SDS_P1;SDS_P2;PMS_P1;PMS_P2;Temp;Humidity;BMP_temperature;BMP_pressure;BME280_temperature;BME280_humidity;BME280_pressure;Samples;Min_cycle;Max_cycle;Signal;HPM_P1;HPM_P2
2022/01/26 00:07:11;;;;;;;68.00;25.40;;;3.70;99.90;;;;;;5052991;28;20049;-76
2022/01/26 00:09:37;;;;;;;62.03;23.67;;;3.80;99.90;;;;;;5038404;28;20057;-76
2022/01/26 00:12:03;;;;;;;72.13;26.87;;;3.70;99.90;;;;;;5055242;28;20049;-77
2022/01/26 00:14:28;;;;;;;70.60;27.03;;;3.70;99.90;;;;;;5055284;28;20051;-76
2022/01/26 00:16:54;;;;;;;69.33;25.70;;;3.70;99.90;;;;;;5052395;28;20139;-76
2022/01/26 00:19:24;;;;;;;65.00;25.60;;;3.70;99.90;;;;;;5038562;28;20041;-77
2022/01/26 00:21:53;;;;;;;71.13;24.37;;;3.70;99.90;;;;;;5054450;28;20044;-76
2022/01/26 00:25:04;;;;;;;66.97;26.07;;;3.70;99.90;;;;;;5054922;28;20047;-76
2022/01/26 00:27:43;;;;;;;70.13;24.97;;;3.70;99.90;;;;;;5052146;28;20053;-76
2022/01/26 00:38:52;;;;;;;64.73;25.17;;;3.60;99.90;;;;;;5053349;28;20048;-76
2022/01/26 00:41:16;;;;;;;77.55;26.20;;;3.60;99.90;;;;;;5050712;28;20143;-76
2022/01/26 00:43:49;;;;;;;64.83;25.27;;;3.60;99.90;;;;;;5054898;28;20133;-76
2022/01/26 00:46:16;;;;;;;78.87;27.90;;;3.60;99.90;;;;;;5054041;28;20044;-77
2022/01/26 00:48:42;;;;;;;73.17;26.37;;;3.60;99.90;;;;;;5086447;28;20056;-76
2022/01/26 00:51:14;;;;;;;70.33;27.00;;;3.60;99.90;;;;;;5054228;28;20048;-75
2022/01/26 00:53:45;;;;;;;70.22;27.33;;;3.50;99.90;;;;;;5054080;28;20041;-76
2022/01/26 00:56:11;;;;;;;76.80;27.13;;;3.50;99.90;;;;;;5085842;28;20044;-77
2022/01/26 00:58:37;;;;;;;68.20;26.33;;;3.50;99.90;;;;;;5037621;28;20040;-76
2022/01/26 01:01:04;;;;;;;79.47;27.80;;;3.50;99.90;;;;;;5055147;28;20052;-76
2022/01/26 01:03:33;;;;;;;84.00;28.53;;;3.40;99.90;;;;;;5054240;28;20051;-76
2022/01/26 01:06:25;;;;;;;78.53;26.87;;;3.40;99.90;;;;;;5038222;28;20052;-76
2022/01/26 01:08:46;;;;;;;72.73;28.17;;;3.40;99.90;;;;;;5053909;28;20037;-76
2022/01/26 01:11:13;;;;;;;68.17;27.50;;;3.40;99.90;;;;;;5053266;28;20053;-77
2022/01/26 01:13:41;;;;;;;71.00;27.13;;;3.40;99.90;;;;;;5054576;28;20068;-76
2022/01/26 01:16:11;;;;;;;77.50;28.00;;;3.40;99.90;;;;;;5054132;28;20048;-77
2022/01/26 01:18:54;;;;;;;77.33;29.77;;;3.40;99.90;;;;;;5054463;28;20843;-75
2022/01/26 01:21:54;;;;;;;79.47;27.93;;;3.40;99.90;;;;;;5086230;28;20041;-77
2022/01/26 01:29:39;;;;;;;73.90;27.60;;;3.40;99.90;;;;;;5053755;28;20053;-76
2022/01/26 01:32:12;;;;;;;72.87;25.73;;;3.40;99.90;;;;;;5039280;28;20053;-77
2022/01/26 01:34:39;;;;;;;74.13;27.10;;;3.40;99.90;;;;;;5037769;28;20056;-76
2022/01/26 01:37:09;;;;;;;73.77;26.33;;;3.40;99.90;;;;;;5053273;28;20063;-76
2022/01/26 01:39:36;;;;;;;71.10;26.70;;;3.40;99.90;;;;;;5053814;28;20281;-77
2022/01/26 01:42:04;;;;;;;70.80;26.43;;;3.40;99.90;;;;;;5053621;28;20060;-76
2022/01/26 01:44:30;;;;;;;72.67;26.43;;;3.40;99.90;;;;;;5055023;28;20053;-76
2022/01/26 01:46:57;;;;;;;70.03;26.37;;;3.40;99.90;;;;;;5052924;28;20056;-76
2022/01/26 01:49:23;;;;;;;72.20;27.23;;;3.30;99.90;;;;;;5053395;28;20045;-76
2022/01/26 01:51:53;;;;;;;67.33;26.60;;;3.40;99.90;;;;;;5053691;28;20524;-76
2022/01/26 01:54:19;;;;;;;80.33;29.20;;;3.30;99.90;;;;;;5037947;28;20057;-75
2022/01/26 01:56:54;;;;;;;68.47;26.20;;;3.30;99.90;;;;;;5036847;28;20059;-76
2022/01/26 01:59:22;;;;;;;76.93;27.07;;;3.30;99.90;;;;;;5068004;28;20044;-76
2022/01/26 02:01:48;;;;;;;73.30;26.40;;;3.30;99.90;;;;;;5053482;28;20053;-76
2022/01/26 02:04:14;;;;;;;74.83;27.07;;;3.30;99.90;;;;;;5053307;28;20045;-76
2022/01/26 02:06:42;;;;;;;73.90;26.73;;;3.30;99.90;;;;;;5033788;28;20040;-76
2022/01/26 02:09:07;;;;;;;74.30;27.87;;;3.20;99.90;;;;;;5053743;28;20045;-76
2022/01/26 02:11:33;;;;;;;75.00;28.10;;;3.20;99.90;;;;;;5035262;28;20506;-76
2022/01/26 02:14:07;;;;;;;69.93;27.43;;;3.30;99.90;;;;;;5053168;28;20363;-76
2022/01/26 02:57:07;;;;;;;69.43;24.40;;;3.20;99.90;;;;;;5051781;28;20063;-76
2022/01/26 03:02:45;;;;;;;82.17;26.77;;;3.10;99.90;;;;;;5038596;28;20045;-76
2022/01/26 03:05:06;;;;;;;69.17;23.93;;;3.10;99.90;;;;;;5051939;28;20053;-76
2022/01/26 03:10:08;;;;;;;76.00;26.73;;;3.00;99.90;;;;;;5052138;28;20100;-76
2022/01/26 03:12:43;;;;;;;76.53;26.13;;;3.00;99.90;;;;;;5052509;28;20052;-76
2022/01/26 03:15:17;;;;;;;82.67;27.60;;;3.00;99.90;;;;;;5021204;28;20107;-76
2022/01/26 03:20:37;;;;;;;69.00;25.10;;;3.00;99.90;;;;;;5014269;28;20455;-75
2022/01/26 03:28:42;;;;;;;69.87;24.90;;;3.00;99.90;;;;;;5050459;28;20044;-76
2022/01/26 03:36:13;;;;;;;79.67;27.20;;;3.00;99.90;;;;;;5038187;28;20060;-77
2022/01/26 03:38:46;;;;;;;79.97;26.80;;;3.00;99.90;;;;;;5056781;28;20499;-76
2022/01/26 03:42:04;;;;;;;74.80;27.33;;;3.00;99.90;;;;;;5055070;28;20094;-77
2022/01/26 03:43:58;;;;;;;80.83;26.90;;;3.00;99.90;;;;;;5048847;28;20087;-76
2022/01/26 03:46:24;;;;;;;77.97;26.97;;;2.90;99.90;;;;;;5053079;28;20140;-76
2022/01/26 03:48:50;;;;;;;76.83;28.20;;;2.90;99.90;;;;;;5056033;28;20053;-76
2022/01/26 03:51:15;;;;;;;75.40;27.47;;;2.90;99.90;;;;;;5055608;28;20476;-77
2022/01/26 03:53:41;;;;;;;79.40;27.80;;;3.00;99.90;;;;;;5038737;28;20441;-76
2022/01/26 03:56:07;;;;;;;71.77;27.87;;;2.90;99.90;;;;;;5039620;28;20117;-76
2022/01/26 03:58:33;;;;;;;79.20;26.70;;;3.00;99.90;;;;;;5055174;28;20048;-75
2022/01/26 04:00:58;;;;;;;80.63;26.23;;;3.00;99.90;;;;;;5040590;28;20079;-76
2022/01/26 04:03:24;;;;;;;90.70;30.40;;;2.90;99.90;;;;;;5055014;28;20108;-76
2022/01/26 04:05:50;;;;;;;81.93;28.60;;;2.90;99.90;;;;;;5055276;28;20052;-79
2022/01/26 04:08:22;;;;;;;77.80;26.30;;;2.90;99.90;;;;;;5054470;28;20048;-76
2022/01/26 04:13:22;;;;;;;83.87;28.07;;;2.90;99.90;;;;;;5073287;28;19946;-76
2022/01/26 04:15:48;;;;;;;77.47;28.77;;;2.90;99.90;;;;;;5056047;28;20091;-76
2022/01/26 04:18:20;;;;;;;83.47;29.87;;;2.90;99.90;;;;;;5054254;28;20094;-76
2022/01/26 04:20:49;;;;;;;79.90;27.50;;;2.90;99.90;;;;;;5087627;28;20052;-76
2022/01/26 04:25:48;;;;;;;80.18;27.17;;;2.90;99.90;;;;;;5055561;28;20060;-75
2022/01/26 04:28:21;;;;;;;85.87;27.97;;;2.90;99.90;;;;;;5052815;28;20437;-76
2022/01/26 04:30:47;;;;;;;80.27;28.57;;;2.90;99.90;;;;;;5055426;28;20045;-76
2022/01/26 04:33:13;;;;;;;81.83;28.47;;;2.90;99.90;;;;;;5054290;28;20049;-76
2022/01/26 04:35:43;;;;;;;80.40;28.57;;;2.90;99.90;;;;;;5056366;28;20051;-76
2022/01/26 04:38:55;;;;;;;81.83;28.13;;;2.90;99.90;;;;;;5052550;28;20613;-76
2022/01/26 04:41:13;;;;;;;81.07;27.63;;;2.90;99.90;;;;;;5049173;28;20045;-76
2022/01/26 04:43:41;;;;;;;79.40;26.07;;;2.90;99.90;;;;;;5054920;28;20059;-77
2022/01/26 04:46:08;;;;;;;78.37;27.83;;;2.80;99.90;;;;;;5019774;28;20076;-78
2022/01/26 04:48:34;;;;;;;80.90;29.07;;;2.90;99.90;;;;;;5055877;28;20085;-78
2022/01/26 04:51:00;;;;;;;82.37;28.43;;;2.80;99.90;;;;;;5054809;28;20045;-78
2022/01/26 04:53:25;;;;;;;84.77;29.37;;;2.80;99.90;;;;;;5053867;28;20525;-76
2022/01/26 04:55:52;;;;;;;85.60;28.87;;;2.80;99.90;;;;;;5022167;28;20471;-76
2022/01/26 04:58:18;;;;;;;81.80;28.53;;;2.80;99.90;;;;;;5037560;28;20071;-76
2022/01/26 05:00:44;;;;;;;81.10;28.83;;;2.80;99.90;;;;;;5054936;28;20033;-76
2022/01/26 05:03:10;;;;;;;87.23;28.63;;;2.80;99.90;;;;;;5037626;28;20037;-76
2022/01/26 05:05:36;;;;;;;77.50;27.53;;;2.80;99.90;;;;;;5037717;28;20421;-77
2022/01/26 05:08:02;;;;;;;80.67;27.00;;;2.80;99.90;;;;;;5054338;28;20052;-76
2022/01/26 05:10:29;;;;;;;74.40;26.03;;;2.80;99.90;;;;;;5085646;28;20063;-76
2022/01/26 05:12:55;;;;;;;82.13;29.90;;;2.80;99.90;;;;;;5054454;28;20045;-76
2022/01/26 05:15:23;;;;;;;82.10;28.17;;;2.70;99.90;;;;;;5053955;28;20045;-76
2022/01/26 05:17:49;;;;;;;88.73;28.57;;;2.80;99.90;;;;;;5005723;28;20110;-78
2022/01/26 05:20:16;;;;;;;82.63;27.17;;;2.70;99.90;;;;;;5053295;28;20052;-76
2022/01/26 05:22:44;;;;;;;80.50;27.70;;;2.70;99.90;;;;;;5053882;28;20056;-76
2022/01/26 05:25:10;;;;;;;81.67;28.27;;;2.70;99.90;;;;;;5052460;28;20048;-76
2022/01/26 05:27:36;;;;;;;81.57;27.57;;;2.70;99.90;;;;;;5055336;28;20037;-76
2022/01/26 05:30:04;;;;;;;79.07;28.20;;;2.70;99.90;;;;;;5053977;28;20139;-76
2022/01/26 05:32:29;;;;;;;78.70;26.50;;;2.80;99.90;;;;;;5037085;28;20033;-76
2022/01/26 05:34:55;;;;;;;77.13;25.63;;;2.70;99.90;;;;;;5053887;28;20108;-77
2022/01/26 05:37:21;;;;;;;74.23;25.23;;;2.80;99.90;;;;;;5053990;28;20053;-77
2022/01/26 05:39:46;;;;;;;76.03;26.43;;;2.70;99.90;;;;;;5053830;28;20045;-76
2022/01/26 05:42:12;;;;;;;84.80;27.47;;;2.70;99.90;;;;;;5086878;28;20052;-76
2022/01/26 05:44:38;;;;;;;74.63;26.67;;;2.70;99.90;;;;;;5053780;28;20109;-76
2022/01/26 05:47:07;;;;;;;81.10;27.10;;;2.80;99.90;;;;;;5053966;28;20080;-78
2022/01/26 05:49:32;;;;;;;78.70;27.10;;;2.70;99.90;;;;;;5054754;28;20497;-76
2022/01/26 05:51:58;;;;;;;78.40;27.83;;;2.80;99.90;;;;;;5037174;28;20053;-75
2022/01/26 05:54:24;;;;;;;82.40;26.97;;;2.80;99.90;;;;;;5052625;28;20487;-76
2022/01/26 05:56:49;;;;;;;72.53;26.00;;;2.70;99.90;;;;;;5053496;28;20156;-76
2022/01/26 05:59:17;;;;;;;74.20;25.80;;;2.70;99.90;;;;;;5051154;28;20055;-77
2022/01/26 06:01:43;;;;;;;74.83;25.50;;;2.80;99.90;;;;;;5053544;28;20061;-76
2022/01/26 06:04:09;;;;;;;73.63;24.03;;;2.70;99.90;;;;;;5053142;28;20048;-76
2022/01/26 06:06:34;;;;;;;72.33;25.67;;;2.70;99.90;;;;;;5086217;28;20056;-76
2022/01/26 06:09:00;;;;;;;77.10;27.43;;;2.80;99.90;;;;;;5054232;28;20041;-77
2022/01/26 06:11:26;;;;;;;77.20;26.07;;;2.70;99.90;;;;;;5052578;28;20072;-76
2022/01/26 06:13:51;;;;;;;71.37;23.90;;;2.70;99.90;;;;;;5036311;28;20057;-76
2022/01/26 06:16:17;;;;;;;73.87;25.13;;;2.70;99.90;;;;;;5053040;28;20045;-75
2022/01/26 06:18:45;;;;;;;72.77;24.33;;;2.70;99.90;;;;;;5047628;28;20053;-76
2022/01/26 06:21:11;;;;;;;69.53;25.33;;;2.70;99.90;;;;;;5053127;28;20049;-75
2022/01/26 06:23:37;;;;;;;74.03;23.30;;;2.70;99.90;;;;;;5019703;28;20045;-76
2022/01/26 06:26:02;;;;;;;67.37;24.50;;;2.70;99.90;;;;;;5053111;28;20033;-76
2022/01/26 06:28:28;;;;;;;76.57;25.50;;;2.70;99.90;;;;;;5052583;28;20051;-76
2022/01/26 06:30:59;;;;;;;77.87;24.73;;;2.60;99.90;;;;;;5052298;28;20139;-76
2022/01/26 06:33:26;;;;;;;71.93;23.50;;;2.60;99.90;;;;;;5052565;28;20053;-76
2022/01/26 06:35:52;;;;;;;73.43;25.00;;;2.60;99.90;;;;;;5052074;28;20100;-76
2022/01/26 06:38:18;;;;;;;74.90;24.63;;;2.60;99.90;;;;;;5034231;28;20037;-77
2022/01/26 06:40:44;;;;;;;70.47;24.17;;;2.60;99.90;;;;;;5051414;28;20072;-78
2022/01/26 06:43:13;;;;;;;76.47;24.00;;;2.60;99.90;;;;;;5052053;28;20103;-76
2022/01/26 06:45:51;;;;;;;70.63;23.50;;;2.60;99.90;;;;;;5035653;28;20052;-75
2022/01/26 06:51:01;;;;;;;67.13;23.23;;;2.70;99.90;;;;;;5052853;28;20135;-75
2022/01/26 06:53:27;;;;;;;72.37;22.70;;;2.70;99.90;;;;;;5052138;28;20076;-75
2022/01/26 06:55:53;;;;;;;65.17;22.67;;;2.70;99.90;;;;;;5053348;28;20095;-76
2022/01/26 06:58:19;;;;;;;63.80;22.43;;;2.70;99.90;;;;;;5035102;28;20041;-75
2022/01/26 07:00:44;;;;;;;60.80;22.33;;;2.70;99.90;;;;;;5035359;28;20040;-75
2022/01/26 07:03:10;;;;;;;61.17;21.10;;;2.70;99.90;;;;;;5035360;28;20041;-75
2022/01/26 07:05:36;;;;;;;60.87;21.53;;;2.70;99.90;;;;;;5035628;28;20048;-75
2022/01/26 07:08:03;;;;;;;61.33;22.43;;;2.70;99.90;;;;;;5035273;28;20052;-75
2022/01/26 07:10:29;;;;;;;66.77;21.60;;;2.80;99.90;;;;;;5051244;28;20059;-79
2022/01/26 07:12:55;;;;;;;66.57;21.77;;;2.70;99.90;;;;;;5052584;28;20060;-77
2022/01/26 07:23:32;;;;;;;61.33;21.83;;;2.70;99.90;;;;;;5049189;28;20040;-76
2022/01/26 07:25:58;;;;;;;58.23;21.50;;;2.70;99.90;;;;;;5050584;28;20045;-76
2022/01/26 07:28:23;;;;;;;62.23;21.73;;;2.70;99.90;;;;;;5049941;28;20045;-76
2022/01/26 07:30:50;;;;;;;60.13;21.33;;;2.70;99.90;;;;;;5052694;28;20107;-76
2022/01/26 07:33:16;;;;;;;69.30;22.43;;;2.70;99.90;;;;;;5033419;28;20056;-77
2022/01/26 07:35:42;;;;;;;68.40;23.27;;;2.70;99.90;;;;;;5050395;28;20037;-78
2022/01/26 07:38:08;;;;;;;63.47;23.70;;;2.70;99.90;;;;;;5033466;28;20049;-76
2022/01/26 07:40:34;;;;;;;60.10;22.77;;;2.80;99.90;;;;;;5049557;28;20048;-78
2022/01/26 07:42:59;;;;;;;63.40;22.07;;;2.80;99.90;;;;;;5033660;28;20044;-77
2022/01/26 07:45:25;;;;;;;69.30;22.87;;;2.70;99.90;;;;;;5032914;28;20052;-75
2022/01/26 07:47:54;;;;;;;68.00;24.40;;;2.80;99.90;;;;;;5017174;28;20083;-73
2022/01/26 07:50:21;;;;;;;66.47;23.87;;;2.80;99.90;;;;;;5049267;28;20100;-76
2022/01/26 07:52:47;;;;;;;67.27;25.80;;;2.70;99.90;;;;;;5064723;28;20041;-74
2022/01/26 07:55:19;;;;;;;66.50;25.23;;;2.80;99.90;;;;;;5048354;28;20052;-75
2022/01/26 07:57:46;;;;;;;69.77;24.07;;;2.80;99.90;;;;;;5079895;28;20067;-75
2022/01/26 08:00:12;;;;;;;66.77;24.83;;;2.80;99.90;;;;;;5032185;28;20048;-74
2022/01/26 08:02:38;;;;;;;70.27;25.27;;;2.80;99.90;;;;;;5046036;28;20089;-75
2022/01/26 08:05:05;;;;;;;71.10;27.30;;;2.80;99.90;;;;;;5046149;28;20566;-76
2022/01/26 08:07:30;;;;;;;66.67;23.93;;;2.80;99.90;;;;;;5057391;28;20080;-75
2022/01/26 08:09:56;;;;;;;68.43;25.17;;;2.80;99.90;;;;;;5045493;28;20056;-73
2022/01/26 08:12:22;;;;;;;72.73;26.30;;;2.80;99.90;;;;;;5033908;28;20049;-74
2022/01/26 08:14:48;;;;;;;75.37;26.70;;;2.90;99.90;;;;;;5050025;28;20056;-74
2022/01/26 08:17:15;;;;;;;74.27;27.87;;;2.80;99.90;;;;;;5048698;28;20569;-75
2022/01/26 08:19:41;;;;;;;74.63;26.57;;;2.80;99.90;;;;;;5048052;28;20041;-74
2022/01/26 08:22:07;;;;;;;71.90;26.77;;;2.90;99.90;;;;;;5045630;28;20088;-76
2022/01/26 08:24:33;;;;;;;75.97;27.63;;;2.90;99.90;;;;;;5047231;28;20075;-73
2022/01/26 08:27:06;;;;;;;73.90;27.90;;;2.90;99.90;;;;;;5083884;28;20040;-74
2022/01/26 08:29:44;;;;;;;74.97;29.53;;;2.90;99.90;;;;;;5068135;28;20041;-74
2022/01/26 08:32:11;;;;;;;84.37;30.43;;;2.90;99.90;;;;;;5052508;28;20091;-74
2022/01/26 08:34:37;;;;;;;78.97;29.17;;;2.90;99.90;;;;;;5053668;28;20045;-75
2022/01/26 08:37:03;;;;;;;77.40;28.80;;;2.90;99.90;;;;;;5032948;28;20232;-74
2022/01/26 08:39:29;;;;;;;80.90;29.70;;;3.00;99.90;;;;;;5033341;28;20073;-75
2022/01/26 08:41:55;;;;;;;84.33;29.93;;;2.90;99.90;;;;;;5020762;28;20415;-76
2022/01/26 08:44:21;;;;;;;83.33;32.77;;;3.00;99.90;;;;;;5051642;28;20037;-74
2022/01/26 08:46:48;;;;;;;83.27;30.73;;;3.00;99.90;;;;;;5052195;28;20087;-74
2022/01/26 08:49:15;;;;;;;93.60;33.53;;;3.10;99.90;;;;;;5050262;28;20052;-74
2022/01/26 08:51:40;;;;;;;87.90;34.00;;;3.10;99.90;;;;;;5051591;28;20043;-74
2022/01/26 08:54:08;;;;;;;91.17;34.50;;;3.10;99.90;;;;;;5050622;28;20049;-74
2022/01/26 08:56:33;;;;;;;89.27;33.43;;;3.10;99.90;;;;;;5045170;28;20057;-74
2022/01/26 08:58:59;;;;;;;98.30;35.73;;;3.10;99.90;;;;;;5042105;28;20049;-79
2022/01/26 09:01:25;;;;;;;98.27;37.83;;;3.10;99.90;;;;;;5045914;28;20041;-75
2022/01/26 09:03:50;;;;;;;98.83;37.23;;;3.10;99.90;;;;;;5052409;28;20100;-74
2022/01/26 09:06:16;;;;;;;98.57;37.10;;;3.10;99.90;;;;;;5050222;28;20049;-75
2022/01/26 09:08:45;;;;;;;105.70;38.20;;;3.20;99.90;;;;;;5033041;28;20048;-75
2022/01/26 09:11:11;;;;;;;104.50;39.70;;;3.20;99.90;;;;;;5058949;28;20057;-74
2022/01/26 09:13:37;;;;;;;106.20;40.40;;;3.20;99.90;;;;;;5059750;28;20061;-74
2022/01/26 09:16:06;;;;;;;101.17;38.07;;;3.20;99.90;;;;;;5081517;28;20225;-75
2022/01/26 09:18:52;;;;;;;103.53;39.33;;;3.20;99.90;;;;;;5034678;28;20037;-75
2022/01/26 09:21:18;;;;;;;116.43;40.70;;;3.20;99.90;;;;;;5078053;28;20051;-74
2022/01/26 09:23:44;;;;;;;105.83;40.07;;;3.30;99.90;;;;;;5028989;28;20057;-75
2022/01/26 09:26:10;;;;;;;108.03;39.60;;;3.30;99.90;;;;;;5045220;28;20041;-75
2022/01/26 09:28:36;;;;;;;103.83;41.23;;;3.20;99.90;;;;;;5029056;28;20098;-73
2022/01/26 09:31:02;;;;;;;106.10;41.53;;;3.30;99.90;;;;;;5042594;28;20523;-75
2022/01/26 09:33:28;;;;;;;102.37;40.53;;;3.30;99.90;;;;;;5078301;28;20044;-76
2022/01/26 09:35:54;;;;;;;112.43;46.40;;;3.30;99.90;;;;;;5049985;28;20106;-75
2022/01/26 09:38:20;;;;;;;113.63;43.60;;;3.40;99.90;;;;;;5066862;28;20167;-74
2022/01/26 09:40:47;;;;;;;114.87;43.83;;;3.40;99.90;;;;;;5047462;28;20089;-75
2022/01/26 09:43:14;;;;;;;109.70;41.37;;;3.40;99.90;;;;;;5064017;28;20041;-76
2022/01/26 09:45:40;;;;;;;112.03;43.50;;;3.40;99.90;;;;;;5026345;28;20202;-74
2022/01/26 09:48:06;;;;;;;110.47;44.07;;;3.40;99.90;;;;;;5024808;28;20718;-74
2022/01/26 09:50:33;;;;;;;116.00;45.50;;;3.40;99.90;;;;;;5040939;28;20048;-74
2022/01/26 09:52:59;;;;;;;115.37;43.07;;;3.40;99.90;;;;;;5050613;28;20132;-75
2022/01/26 09:55:25;;;;;;;111.30;43.63;;;3.50;99.90;;;;;;5046561;28;20092;-77
2022/01/26 09:57:57;;;;;;;111.90;44.73;;;3.50;99.90;;;;;;5046494;28;20072;-74
2022/01/26 10:00:24;;;;;;;;;;;3.60;99.90;;;;;;5062649;28;20048;-75
2022/01/26 10:03:01;;;;;;;119.83;44.10;;;3.60;99.90;;;;;;5044088;28;20067;-75
2022/01/26 10:05:45;;;;;;;124.57;44.93;;;3.60;99.90;;;;;;5047376;28;20048;-74
2022/01/26 10:18:40;;;;;;;118.73;45.07;;;3.70;99.90;;;;;;5083601;28;20072;-74
2022/01/26 10:21:08;;;;;;;129.83;46.97;;;3.70;99.90;;;;;;5047318;28;20095;-74
2022/01/26 10:23:40;;;;;;;119.63;42.97;;;3.70;99.90;;;;;;5047441;28;20068;-74
2022/01/26 10:26:06;;;;;;;109.13;41.97;;;3.80;99.90;;;;;;5047473;28;20044;-74
2022/01/26 10:28:57;;;;;;;122.17;47.63;;;3.80;99.90;;;;;;5051264;28;20080;-74
2022/01/26 10:31:27;;;;;;;113.10;44.63;;;3.80;99.90;;;;;;5052302;28;20049;-75
2022/01/26 10:33:58;;;;;;;111.73;44.87;;;3.90;99.90;;;;;;5052590;28;20888;-75
2022/01/26 10:36:26;;;;;;;116.63;44.07;;;3.80;99.90;;;;;;5050571;28;20053;-74
2022/01/26 10:39:15;;;;;;;116.70;44.20;;;3.90;99.90;;;;;;5035082;28;20064;-74
2022/01/26 10:41:43;;;;;;;111.53;41.77;;;3.90;99.90;;;;;;5052928;28;21023;-74
2022/01/26 10:44:09;;;;;;;109.07;41.50;;;3.90;99.90;;;;;;5050014;28;20165;-74
2022/01/26 10:46:41;;;;;;;105.77;41.83;;;4.10;99.90;;;;;;5052648;28;20492;-74
2022/01/26 10:54:20;;;;;;;105.63;39.33;;;4.00;99.90;;;;;;5052248;28;20103;-74
2022/01/26 10:56:47;;;;;;;103.07;40.47;;;4.00;99.90;;;;;;5050154;28;20053;-74
2022/01/26 10:59:14;;;;;;;103.80;41.60;;;4.10;99.90;;;;;;5084889;28;20040;-76
2022/01/26 11:01:39;;;;;;;108.50;41.00;;;4.10;99.90;;;;;;5037132;28;20132;-73
2022/01/26 11:04:07;;;;;;;100.17;38.33;;;4.10;99.90;;;;;;5069061;28;20095;-74
2022/01/26 11:06:32;;;;;;;99.23;39.57;;;4.10;99.90;;;;;;5050521;28;20161;-74
2022/01/26 11:09:10;;;;;;;104.40;38.10;;;4.20;99.90;;;;;;5033782;28;20071;-74
2022/01/26 11:11:39;;;;;;;103.17;39.97;;;4.10;99.90;;;;;;5083652;28;20053;-74
2022/01/26 11:14:26;;;;;;;108.60;42.10;;;4.20;99.90;;;;;;5055028;28;20049;-75
2022/01/26 11:16:54;;;;;;;97.10;37.67;;;4.20;99.90;;;;;;5050532;28;20064;-74
2022/01/26 11:19:20;;;;;;;106.23;40.13;;;4.20;99.90;;;;;;5034653;28;20037;-74
2022/01/26 11:21:46;;;;;;;88.53;36.17;;;4.20;99.90;;;;;;5051454;28;20045;-74
2022/01/26 11:24:19;;;;;;;105.07;38.03;;;4.20;99.90;;;;;;5050747;28;20534;-75
2022/01/26 11:26:47;;;;;;;102.10;38.83;;;4.20;99.90;;;;;;5049300;28;20044;-74
2022/01/26 11:29:22;;;;;;;100.30;38.90;;;4.10;99.90;;;;;;5051053;28;20140;-74
2022/01/26 11:32:00;;;;;;;94.57;37.87;;;4.30;99.90;;;;;;5082760;28;20045;-74
2022/01/26 11:34:27;;;;;;;106.33;39.53;;;4.20;99.90;;;;;;5034618;28;20117;-74
2022/01/26 11:36:58;;;;;;;99.43;36.73;;;4.20;99.90;;;;;;5048315;28;20056;-75
2022/01/26 11:47:25;;;;;;;99.43;37.47;;;4.20;99.90;;;;;;5049907;28;20045;-77
2022/01/26 11:50:02;;;;;;;93.80;35.00;;;4.20;99.90;;;;;;5032016;28;20041;-76
2022/01/26 11:52:35;;;;;;;106.60;36.90;;;4.30;99.90;;;;;;5051722;28;20095;-76
2022/01/26 11:55:01;;;;;;;93.40;34.60;;;4.30;99.90;;;;;;5033716;28;20048;-76
2022/01/26 11:57:48;;;;;;;96.93;36.47;;;4.40;99.90;;;;;;5037998;28;20490;-76
2022/01/26 12:00:21;;;;;;;87.40;34.33;;;4.40;99.90;;;;;;5052551;28;20071;-76
2022/01/26 12:05:17;;;;;;;88.50;33.77;;;4.40;99.90;;;;;;5054498;28;20049;-74
2022/01/26 12:07:55;;;;;;;94.60;34.87;;;4.50;99.90;;;;;;5052464;28;20041;-74
2022/01/26 12:10:39;;;;;;;86.73;33.87;;;4.50;99.90;;;;;;5052884;28;20641;-74
2022/01/26 12:13:12;;;;;;;93.27;34.23;;;4.50;99.90;;;;;;5085597;28;20058;-74
2022/01/26 12:15:46;;;;;;;88.20;32.47;;;4.50;99.90;;;;;;5051679;28;20107;-73
2022/01/26 12:32:18;;;;;;;88.30;32.33;;;4.50;99.90;;;;;;5050309;28;20128;-74
2022/01/26 12:35:00;;;;;;;94.00;34.80;;;4.60;99.90;;;;;;5053104;28;20053;-74
2022/01/26 12:43:06;;;;;;;95.27;35.27;;;4.50;99.90;;;;;;5053819;28;20048;-74
2022/01/26 12:45:30;;;;;;;95.47;36.03;;;4.50;99.90;;;;;;5053035;28;20394;-74
2022/01/26 12:47:56;;;;;;;100.13;36.47;;;4.50;99.90;;;;;;5036207;28;20033;-74
2022/01/26 12:50:24;;;;;;;100.90;37.10;;;4.60;99.90;;;;;;5052010;28;20048;-74
2022/01/26 12:52:52;;;;;;;88.70;32.73;;;4.60;99.90;;;;;;5036738;28;20107;-74
2022/01/26 12:55:30;;;;;;;93.33;35.50;;;4.60;99.90;;;;;;5055060;28;20490;-74
2022/01/26 12:57:56;;;;;;;101.47;34.97;;;4.60;99.90;;;;;;5053196;28;20137;-73
2022/01/26 13:00:24;;;;;;;93.83;33.70;;;4.50;99.90;;;;;;5054649;28;20144;-74
2022/01/26 13:02:53;;;;;;;88.83;31.33;;;4.60;99.90;;;;;;5069646;28;20053;-74
2022/01/26 13:05:24;;;;;;;83.77;31.57;;;4.60;99.90;;;;;;5050565;28;20149;-74
2022/01/26 13:08:03;;;;;;;85.55;31.52;;;4.60;99.90;;;;;;5051318;28;20041;-74
2022/01/26 13:10:30;;;;;;;89.00;31.50;;;4.60;99.90;;;;;;5052952;28;20601;-74
2022/01/26 13:13:16;;;;;;;79.20;30.97;;;4.50;99.90;;;;;;5036288;28;20142;-74
2022/01/26 13:16:04;;;;;;;80.90;30.53;;;4.50;99.90;;;;;;5051835;28;20099;-74
2022/01/26 13:19:06;;;;;;;85.17;30.33;;;4.50;99.90;;;;;;5053450;28;20057;-73
2022/01/26 13:21:47;;;;;;;81.87;31.33;;;4.50;99.90;;;;;;5082772;28;20049;-74
2022/01/26 13:27:21;;;;;;;76.30;30.00;;;4.50;99.90;;;;;;5050906;28;20112;-74
2022/01/26 13:30:09;;;;;;;80.37;31.03;;;4.50;99.90;;;;;;5052531;28;20045;-74
2022/01/26 13:33:10;;;;;;;73.50;26.37;;;4.60;99.90;;;;;;5038445;28;20276;-73
2022/01/26 13:41:25;;;;;;;74.30;28.47;;;4.60;99.90;;;;;;5027151;28;20769;-74
2022/01/26 13:54:52;;;;;;;83.57;29.73;;;4.70;99.90;;;;;;5028477;28;20074;-75
2022/01/26 13:59:55;;;;;;;77.87;29.33;;;4.70;99.90;;;;;;5051464;28;20057;-75
2022/01/26 14:02:21;;;;;;;73.97;28.37;;;4.70;99.90;;;;;;5051699;28;20087;-75
2022/01/26 14:04:46;;;;;;;68.27;26.30;;;4.70;99.90;;;;;;5019065;28;20560;-75
2022/01/26 14:07:12;;;;;;;77.50;27.07;;;4.70;99.90;;;;;;5051528;28;20045;-76
2022/01/26 14:09:38;;;;;;;69.63;26.73;;;4.70;99.90;;;;;;5035986;28;20587;-75
2022/01/26 14:12:05;;;;;;;66.60;27.10;;;4.80;99.90;;;;;;5052708;28;20593;-75
2022/01/26 14:14:33;;;;;;;72.03;26.77;;;4.70;99.90;;;;;;5068295;28;20048;-75
2022/01/26 14:17:01;;;;;;;78.23;28.10;;;4.70;99.90;;;;;;5033705;28;20061;-75
2022/01/26 14:22:35;;;;;;;75.10;28.30;;;4.80;99.90;;;;;;5027695;28;20065;-75
2022/01/26 14:25:24;;;;;;;74.13;28.27;;;4.80;99.90;;;;;;5070323;28;20063;-76
2022/01/26 14:27:54;;;;;;;73.67;26.60;;;4.80;99.90;;;;;;5053420;28;20044;-76
2022/01/26 14:35:50;;;;;;;71.87;24.67;;;4.80;99.90;;;;;;5037185;28;20048;-74
2022/01/26 15:00:30;;;;;;;68.03;25.17;;;4.90;99.90;;;;;;5054340;28;20061;-75
2022/01/26 15:52:14;;;;;;;68.10;28.85;;;5.00;99.90;;;;;;5054892;28;21131;-74
2022/01/26 16:28:33;;;;;;;71.77;28.00;;;5.10;99.90;;;;;;5052792;28;20124;-79
2022/01/26 18:40:10;;;;;;;55.20;23.80;;;5.30;99.90;;;;;;5030304;28;20088;-74
2022/01/26 18:50:33;;;;;;;52.07;22.07;;;5.40;99.90;;;;;;5043522;28;20060;-74
2022/01/26 18:52:59;;;;;;;58.80;24.97;;;5.40;99.90;;;;;;5027386;28;20064;-74
2022/01/26 18:55:25;;;;;;;60.57;24.90;;;5.40;99.90;;;;;;5042554;28;20067;-75
2022/01/26 18:57:50;;;;;;;58.23;24.20;;;5.40;99.90;;;;;;5043306;28;21319;-74
2022/01/26 19:00:17;;;;;;;52.80;21.60;;;5.40;99.90;;;;;;5043788;28;20199;-74
2022/01/26 19:02:42;;;;;;;53.63;22.47;;;5.40;99.90;;;;;;5042509;28;20108;-74
2022/01/26 19:05:09;;;;;;;61.00;24.03;;;5.40;99.90;;;;;;5043941;28;20068;-74
2022/01/26 19:07:35;;;;;;;54.90;22.80;;;5.40;99.90;;;;;;5058392;28;20043;-73
2022/01/26 19:10:02;;;;;;;46.97;21.87;;;5.50;99.90;;;;;;5043788;28;20041;-74
2022/01/26 19:12:32;;;;;;;55.10;22.63;;;5.50;99.90;;;;;;5073888;28;20049;-72
2022/01/26 19:15:02;;;;;;;53.37;22.17;;;5.40;99.90;;;;;;5010915;28;20086;-73
2022/01/26 19:18:46;;;;;;;52.77;22.50;;;5.50;99.90;;;;;;5043811;28;20056;-74
2022/01/26 19:26:12;;;;;;;52.65;21.55;;;5.50;99.90;;;;;;5036208;28;20048;-74
2022/01/26 19:28:45;;;;;;;56.73;22.63;;;5.50;99.90;;;;;;5043045;28;20101;-74
2022/01/26 19:52:57;;;;;;;48.53;20.60;;;5.60;99.90;;;;;;5026434;28;20057;-75
2022/01/26 19:55:24;;;;;;;50.63;23.07;;;5.60;99.90;;;;;;5073913;28;20051;-76
2022/01/26 19:57:51;;;;;;;53.40;23.57;;;5.60;99.90;;;;;;5040151;28;20075;-75
2022/01/26 20:00:17;;;;;;;53.13;23.77;;;5.70;99.90;;;;;;5042679;28;20080;-77
2022/01/26 20:02:43;;;;;;;55.07;24.40;;;5.60;99.90;;;;;;5046118;28;20056;-77
2022/01/26 20:05:14;;;;;;;52.27;25.57;;;5.60;99.90;;;;;;5033085;28;20048;-76
2022/01/26 20:07:40;;;;;;;55.20;25.33;;;5.50;99.90;;;;;;5084098;28;20104;-74